sensor_id;sensor_type;location;lat;lon;timestamp;pressure;altitude;pressure_sealevel;temperature;humidity
11912;BME280;6016;41.928;25.556;2022-12-05T00:02:07;100077.50;;;7.84;87.22
11912;BME280;6016;41.928;25.556;2022-12-05T00:04:34;100279.66;;;9.13;86.87
11912;BME280;6016;41.928;25.556;2022-12-05T00:07:00;100275.06;;;9.03;87.02
11912;BME280;6016;41.928;25.556;2022-12-05T00:09:27;100166.97;;;8.38;87.16
11912;BME280;6016;41.928;25.556;2022-12-05T00:11:55;100286.03;;;9.09;87.41
11912;BME280;6016;41.928;25.556;2022-12-05T00:14:22;100067.06;;;7.83;87.33
11912;BME280;6016;41.928;25.556;2022-12-05T00:16:49;100283.75;;;9.18;87.26
11912;BME280;6016;41.928;25.556;2022-12-05T00:19:16;100277.44;;;9.20;87.07
11912;BME280;6016;41.928;25.556;2022-12-05T00:21:43;100325.69;;;8.93;87.00
11912;BME280;6016;41.928;25.556;2022-12-05T00:24:12;100216.34;;;8.75;86.74
11912;BME280;6016;41.928;25.556;2022-12-05T00:26:39;100144.63;;;8.03;86.39
11912;BME280;6016;41.928;25.556;2022-12-05T00:29:08;100180.84;;;8.54;86.84
11912;BME280;6016;41.928;25.556;2022-12-05T00:31:34;100256.31;;;8.94;86.54
11912;BME280;6016;41.928;25.556;2022-12-05T00:34:02;100185.31;;;8.25;86.29
11912;BME280;6016;41.928;25.556;2022-12-05T00:36:31;100283.22;;;9.12;87.24
11912;BME280;6016;41.928;25.556;2022-12-05T00:38:59;100286.28;;;9.19;86.99
11912;BME280;6016;41.928;25.556;2022-12-05T00:41:27;100281.84;;;9.20;86.97
11912;BME280;6016;41.928;25.556;2022-12-05T00:43:56;100281.47;;;9.26;86.95
11912;BME280;6016;41.928;25.556;2022-12-05T00:46:26;100282.94;;;9.17;86.09
11912;BME280;6016;41.928;25.556;2022-12-05T00:48:54;100122.03;;;8.28;85.88
11912;BME280;6016;41.928;25.556;2022-12-05T00:51:23;100277.78;;;9.28;86.11
11912;BME280;6016;41.928;25.556;2022-12-05T00:53:51;100273.66;;;9.24;86.22
11912;BME280;6016;41.928;25.556;2022-12-05T00:56:20;100265.19;;;9.06;86.17
11912;BME280;6016;41.928;25.556;2022-12-05T00:58:48;100269.13;;;8.86;86.42
11912;BME280;6016;41.928;25.556;2022-12-05T01:01:16;100187.16;;;8.37;86.79
11912;BME280;6016;41.928;25.556;2022-12-05T01:03:46;100260.97;;;9.04;86.67
11912;BME280;6016;41.928;25.556;2022-12-05T01:06:14;100144.63;;;8.30;86.92
11912;BME280;6016;41.928;25.556;2022-12-05T01:08:41;100252.75;;;8.95;87.12
11912;BME280;6016;41.928;25.556;2022-12-05T01:11:09;100132.84;;;8.23;86.17
11912;BME280;6016;41.928;25.556;2022-12-05T01:13:36;100198.06;;;8.73;86.56
11912;BME280;6016;41.928;25.556;2022-12-05T01:16:04;100273.13;;;9.19;86.86
11912;BME280;6016;41.928;25.556;2022-12-05T01:18:31;99990.97;;;7.26;85.71
11912;BME280;6016;41.928;25.556;2022-12-05T01:21:03;100266.38;;;9.15;86.03
11912;BME280;6016;41.928;25.556;2022-12-05T01:23:30;100267.22;;;9.15;86.28
11912;BME280;6016;41.928;25.556;2022-12-05T01:25:57;100116.13;;;8.24;86.83
11912;BME280;6016;41.928;25.556;2022-12-05T01:28:24;100267.56;;;9.24;86.80
11912;BME280;6016;41.928;25.556;2022-12-05T01:30:50;100028.81;;;7.79;86.49
11912;BME280;6016;41.928;25.556;2022-12-05T01:33:17;100263.13;;;9.24;86.02
11912;BME280;6016;41.928;25.556;2022-12-05T01:35:44;100256.63;;;9.30;85.89
11912;BME280;6016;41.928;25.556;2022-12-05T01:38:12;100092.41;;;8.11;85.85
11912;BME280;6016;41.928;25.556;2022-12-05T01:40:40;100262.63;;;9.32;84.80
11912;BME280;6016;41.928;25.556;2022-12-05T01:43:13;100183.03;;;8.88;85.68
11912;BME280;6016;41.928;25.556;2022-12-05T01:45:41;100260.72;;;9.34;85.39
11912;BME280;6016;41.928;25.556;2022-12-05T01:48:11;100270.06;;;9.12;85.89
11912;BME280;6016;41.928;25.556;2022-12-05T01:50:39;100178.06;;;8.83;85.96
11912;BME280;6016;41.928;25.556;2022-12-05T01:53:06;100161.41;;;8.57;85.81
11912;BME280;6016;41.928;25.556;2022-12-05T01:55:35;100283.16;;;9.40;85.06
11912;BME280;6016;41.928;25.556;2022-12-05T01:58:04;99712.44;;;6.10;84.71
11912;BME280;6016;41.928;25.556;2022-12-05T02:00:32;100252.22;;;9.43;85.01
11912;BME280;6016;41.928;25.556;2022-12-05T02:03:02;100072.63;;;8.33;85.41
11912;BME280;6016;41.928;25.556;2022-12-05T02:05:32;100089.88;;;8.37;84.37
11912;BME280;6016;41.928;25.556;2022-12-05T02:08:01;100246.94;;;9.43;84.98
11912;BME280;6016;41.928;25.556;2022-12-05T02:10:32;100238.94;;;9.45;84.59
11912;BME280;6016;41.928;25.556;2022-12-05T02:13:07;100107.31;;;8.53;85.41
11912;BME280;6016;41.928;25.556;2022-12-05T02:15:41;100038.69;;;8.30;85.04
11912;BME280;6016;41.928;25.556;2022-12-05T02:18:36;100121.13;;;8.69;84.79
11912;BME280;6016;41.928;25.556;2022-12-05T02:21:32;100228.41;;;9.45;84.38
11912;BME280;6016;41.928;25.556;2022-12-05T02:24:23;100207.19;;;9.21;83.84
11912;BME280;6016;41.928;25.556;2022-12-05T02:26:59;100175.50;;;9.09;84.52
11912;BME280;6016;41.928;25.556;2022-12-05T02:29:45;100174.66;;;9.09;84.48
11912;BME280;6016;41.928;25.556;2022-12-05T02:32:17;100229.38;;;9.44;84.49
11912;BME280;6016;41.928;25.556;2022-12-05T02:34:53;100226.72;;;9.44;84.35
11912;BME280;6016;41.928;25.556;2022-12-05T02:37:27;100060.53;;;8.30;84.86
11912;BME280;6016;41.928;25.556;2022-12-05T02:40:01;100176.00;;;9.01;85.18
11912;BME280;6016;41.928;25.556;2022-12-05T02:42:36;100090.88;;;8.49;84.76
11912;BME280;6016;41.928;25.556;2022-12-05T02:45:09;100220.63;;;9.31;84.54
11912;BME280;6016;41.928;25.556;2022-12-05T02:47:41;100212.84;;;9.42;83.91
11912;BME280;6016;41.928;25.556;2022-12-05T02:50:13;100216.38;;;9.41;83.97
11912;BME280;6016;41.928;25.556;2022-12-05T02:52:44;100218.19;;;9.40;83.62
11912;BME280;6016;41.928;25.556;2022-12-05T02:55:13;100241.81;;;9.42;83.77
11912;BME280;6016;41.928;25.556;2022-12-05T02:57:42;100250.34;;;9.05;84.30
11912;BME280;6016;41.928;25.556;2022-12-05T03:00:13;100228.50;;;9.31;84.70
11912;BME280;6016;41.928;25.556;2022-12-05T03:02:41;99879.69;;;7.01;84.45
11912;BME280;6016;41.928;25.556;2022-12-05T03:05:15;100239.72;;;9.07;85.09
11912;BME280;6016;41.928;25.556;2022-12-05T03:07:45;100080.22;;;8.38;84.72
11912;BME280;6016;41.928;25.556;2022-12-05T03:10:16;100237.16;;;9.33;84.80
11912;BME280;6016;41.928;25.556;2022-12-05T03:12:49;100202.47;;;9.13;84.91
11912;BME280;6016;41.928;25.556;2022-12-05T03:15:21;100237.66;;;9.38;84.99
11912;BME280;6016;41.928;25.556;2022-12-05T03:17:53;100253.63;;;9.22;84.46
11912;BME280;6016;41.928;25.556;2022-12-05T03:20:26;100121.88;;;8.71;84.89
11912;BME280;6016;41.928;25.556;2022-12-05T03:22:57;100188.44;;;8.99;84.60
11912;BME280;6016;41.928;25.556;2022-12-05T03:25:34;100158.69;;;8.71;84.87
11912;BME280;6016;41.928;25.556;2022-12-05T03:28:05;100148.19;;;8.71;85.08
11912;BME280;6016;41.928;25.556;2022-12-05T03:30:37;100196.53;;;8.96;84.79
11912;BME280;6016;41.928;25.556;2022-12-05T03:33:07;100217.00;;;9.06;84.94
11912;BME280;6016;41.928;25.556;2022-12-05T03:35:39;100171.00;;;8.71;85.02
11912;BME280;6016;41.928;25.556;2022-12-05T03:38:11;100213.94;;;9.12;85.19
11912;BME280;6016;41.928;25.556;2022-12-05T03:40:43;100216.69;;;9.10;85.45
11912;BME280;6016;41.928;25.556;2022-12-05T03:43:18;100171.19;;;8.55;85.56
11912;BME280;6016;41.928;25.556;2022-12-05T03:45:53;100212.53;;;8.93;85.54
11912;BME280;6016;41.928;25.556;2022-12-05T03:48:26;100222.19;;;8.80;85.86
11912;BME280;6016;41.928;25.556;2022-12-05T03:50:59;100134.38;;;8.13;86.72
11912;BME280;6016;41.928;25.556;2022-12-05T03:53:31;100217.81;;;8.66;87.07
11912;BME280;6016;41.928;25.556;2022-12-05T03:56:03;100219.28;;;8.70;86.88
11912;BME280;6016;41.928;25.556;2022-12-05T03:58:35;99988.06;;;7.31;86.55
11912;BME280;6016;41.928;25.556;2022-12-05T04:01:07;100150.06;;;8.00;86.98
11912;BME280;6016;41.928;25.556;2022-12-05T04:03:38;100272.63;;;8.15;87.71
11912;BME280;6016;41.928;25.556;2022-12-05T04:06:11;100218.03;;;8.48;88.31
11912;BME280;6016;41.928;25.556;2022-12-05T04:08:42;100218.69;;;8.52;87.46
11912;BME280;6016;41.928;25.556;2022-12-05T04:11:14;99948.56;;;6.90;87.43
11912;BME280;6016;41.928;25.556;2022-12-05T04:13:44;100204.84;;;8.21;87.62
11912;BME280;6016;41.928;25.556;2022-12-05T04:16:17;100209.88;;;8.38;88.08
11912;BME280;6016;41.928;25.556;2022-12-05T04:19:18;100042.78;;;7.37;88.38
11912;BME280;6016;41.928;25.556;2022-12-05T04:21:48;100206.22;;;8.41;88.00
11912;BME280;6016;41.928;25.556;2022-12-05T04:24:18;100151.78;;;7.86;88.06
11912;BME280;6016;41.928;25.556;2022-12-05T04:27:24;100211.66;;;8.52;87.94
11912;BME280;6016;41.928;25.556;2022-12-05T04:29:59;99785.34;;;5.87;88.02
11912;BME280;6016;41.928;25.556;2022-12-05T04:32:33;100222.41;;;8.62;87.85
11912;BME280;6016;41.928;25.556;2022-12-05T04:35:08;100251.75;;;8.56;87.51
11912;BME280;6016;41.928;25.556;2022-12-05T04:37:39;100186.84;;;8.42;87.48
11912;BME280;6016;41.928;25.556;2022-12-05T04:40:12;100232.50;;;8.83;86.96
11912;BME280;6016;41.928;25.556;2022-12-05T04:42:42;100230.50;;;8.86;86.52
11912;BME280;6016;41.928;25.556;2022-12-05T04:45:15;100207.00;;;8.70;86.12
11912;BME280;6016;41.928;25.556;2022-12-05T04:47:48;100229.06;;;8.95;86.09
11912;BME280;6016;41.928;25.556;2022-12-05T04:50:16;100207.97;;;8.82;85.91
11912;BME280;6016;41.928;25.556;2022-12-05T04:52:48;100240.75;;;9.04;85.32
11912;BME280;6016;41.928;25.556;2022-12-05T04:55:20;100240.56;;;9.07;85.08
11912;BME280;6016;41.928;25.556;2022-12-05T04:57:56;100243.00;;;9.10;84.69
11912;BME280;6016;41.928;25.556;2022-12-05T05:00:28;99736.41;;;5.87;84.45
11912;BME280;6016;41.928;25.556;2022-12-05T05:03:02;100249.44;;;9.19;84.33
11912;BME280;6016;41.928;25.556;2022-12-05T05:05:32;100243.00;;;9.23;84.52
11912;BME280;6016;41.928;25.556;2022-12-05T05:08:00;100250.72;;;9.26;84.28
11912;BME280;6016;41.928;25.556;2022-12-05T05:10:32;99743.53;;;5.85;83.90
11912;BME280;6016;41.928;25.556;2022-12-05T05:13:02;100235.94;;;9.11;83.89
11912;BME280;6016;41.928;25.556;2022-12-05T05:15:28;100247.88;;;9.29;83.84
11912;BME280;6016;41.928;25.556;2022-12-05T05:17:56;100249.56;;;9.31;83.96
11912;BME280;6016;41.928;25.556;2022-12-05T05:20:23;100253.03;;;9.31;84.13
11912;BME280;6016;41.928;25.556;2022-12-05T05:22:52;100245.13;;;9.31;84.18
11912;BME280;6016;41.928;25.556;2022-12-05T05:25:19;100252.09;;;9.32;84.44
11912;BME280;6016;41.928;25.556;2022-12-05T05:27:47;100145.31;;;8.62;84.20
11912;BME280;6016;41.928;25.556;2022-12-05T05:30:15;100255.44;;;9.34;83.92
11912;BME280;6016;41.928;25.556;2022-12-05T05:32:42;100161.31;;;8.71;84.04
11912;BME280;6016;41.928;25.556;2022-12-05T05:35:10;100247.16;;;9.40;84.06
11912;BME280;6016;41.928;25.556;2022-12-05T05:37:38;100223.84;;;9.21;83.94
11912;BME280;6016;41.928;25.556;2022-12-05T05:40:06;100248.75;;;9.43;83.66
11912;BME280;6016;41.928;25.556;2022-12-05T05:42:33;100257.38;;;9.45;82.94
11912;BME280;6016;41.928;25.556;2022-12-05T05:45:00;100236.19;;;9.47;83.02
11912;BME280;6016;41.928;25.556;2022-12-05T05:47:27;100062.13;;;8.33;83.17
11912;BME280;6016;41.928;25.556;2022-12-05T05:49:54;100254.53;;;9.48;82.56
11912;BME280;6016;41.928;25.556;2022-12-05T05:52:22;100152.53;;;8.85;82.82
11912;BME280;6016;41.928;25.556;2022-12-05T05:54:49;100251.81;;;9.50;82.52
11912;BME280;6016;41.928;25.556;2022-12-05T05:57:16;100108.72;;;8.71;82.46
11912;BME280;6016;41.928;25.556;2022-12-05T05:59:43;100193.72;;;9.25;82.91
11912;BME280;6016;41.928;25.556;2022-12-05T06:02:09;100240.03;;;9.55;82.66
11912;BME280;6016;41.928;25.556;2022-12-05T06:04:36;100237.38;;;9.55;82.69
11912;BME280;6016;41.928;25.556;2022-12-05T06:07:03;99977.13;;;7.52;82.37
11912;BME280;6016;41.928;25.556;2022-12-05T06:09:31;100181.84;;;9.20;82.49
11912;BME280;6016;41.928;25.556;2022-12-05T06:11:58;100194.94;;;8.94;82.00
11912;BME280;6016;41.928;25.556;2022-12-05T06:14:25;100201.13;;;9.20;82.62
11912;BME280;6016;41.928;25.556;2022-12-05T06:16:52;100253.69;;;9.61;82.46
11912;BME280;6016;41.928;25.556;2022-12-05T06:19:18;100188.59;;;9.24;82.55
11912;BME280;6016;41.928;25.556;2022-12-05T06:21:47;100249.91;;;9.65;82.04
11912;BME280;6016;41.928;25.556;2022-12-05T06:24:15;100256.84;;;9.66;81.90
11912;BME280;6016;41.928;25.556;2022-12-05T06:26:43;100232.84;;;9.57;82.33
11912;BME280;6016;41.928;25.556;2022-12-05T06:29:10;100245.06;;;9.71;82.15
11912;BME280;6016;41.928;25.556;2022-12-05T06:31:37;100139.81;;;9.05;82.72
11912;BME280;6016;41.928;25.556;2022-12-05T06:34:04;100261.28;;;9.78;82.36
11912;BME280;6016;41.928;25.556;2022-12-05T06:36:30;100262.88;;;9.81;81.88
11912;BME280;6016;41.928;25.556;2022-12-05T06:38:58;100273.72;;;9.63;80.53
11912;BME280;6016;41.928;25.556;2022-12-05T06:41:26;100273.91;;;9.60;82.07
11912;BME280;6016;41.928;25.556;2022-12-05T06:43:56;100232.09;;;9.42;83.02
11912;BME280;6016;41.928;25.556;2022-12-05T06:46:24;100223.78;;;9.49;82.49
11912;BME280;6016;41.928;25.556;2022-12-05T06:48:52;99925.97;;;7.44;81.29
11912;BME280;6016;41.928;25.556;2022-12-05T06:51:19;100197.94;;;8.75;80.57
11912;BME280;6016;41.928;25.556;2022-12-05T06:53:46;100197.00;;;9.29;80.95
11912;BME280;6016;41.928;25.556;2022-12-05T06:56:15;100232.44;;;9.51;81.44
11912;BME280;6016;41.928;25.556;2022-12-05T06:58:43;100261.94;;;9.69;81.33
11912;BME280;6016;41.928;25.556;2022-12-05T07:01:13;100223.13;;;9.58;81.84
11912;BME280;6016;41.928;25.556;2022-12-05T07:04:14;100226.22;;;9.52;80.84
11912;BME280;6016;41.928;25.556;2022-12-05T07:06:43;100281.34;;;9.94;80.86
11912;BME280;6016;41.928;25.556;2022-12-05T07:09:10;100220.09;;;9.64;81.32
11912;BME280;6016;41.928;25.556;2022-12-05T07:11:38;99940.47;;;7.78;80.33
11912;BME280;6016;41.928;25.556;2022-12-05T07:14:05;99780.03;;;7.01;80.54
11912;BME280;6016;41.928;25.556;2022-12-05T07:16:35;100225.97;;;9.81;81.01
11912;BME280;6016;41.928;25.556;2022-12-05T07:19:02;99648.00;;;6.35;80.47
11912;BME280;6016;41.928;25.556;2022-12-05T07:21:29;100212.50;;;9.85;79.10
11912;BME280;6016;41.928;25.556;2022-12-05T07:23:56;100204.03;;;9.93;78.94
11912;BME280;6016;41.928;25.556;2022-12-05T07:26:23;100299.06;;;10.55;79.41
11912;BME280;6016;41.928;25.556;2022-12-05T07:28:51;99521.44;;;5.79;78.70
11912;BME280;6016;41.928;25.556;2022-12-05T07:31:19;100032.84;;;8.52;78.26
11912;BME280;6016;41.928;25.556;2022-12-05T07:33:49;100305.31;;;10.54;78.62
11912;BME280;6016;41.928;25.556;2022-12-05T07:36:17;100252.72;;;10.26;79.06
11912;BME280;6016;41.928;25.556;2022-12-05T07:38:45;100303.69;;;10.64;78.90
11912;BME280;6016;41.928;25.556;2022-12-05T07:41:16;100197.00;;;9.94;78.92
11912;BME280;6016;41.928;25.556;2022-12-05T07:43:44;100213.31;;;9.99;77.65
11912;BME280;6016;41.928;25.556;2022-12-05T07:46:11;100304.00;;;10.73;77.91
11912;BME280;6016;41.928;25.556;2022-12-05T07:48:39;100065.16;;;9.32;77.41
11912;BME280;6016;41.928;25.556;2022-12-05T07:51:09;100303.63;;;10.90;78.23
11912;BME280;6016;41.928;25.556;2022-12-05T07:53:37;100310.56;;;10.91;77.96
11912;BME280;6016;41.928;25.556;2022-12-05T07:56:07;100294.81;;;10.78;76.67
11912;BME280;6016;41.928;25.556;2022-12-05T07:58:35;99929.88;;;8.58;74.81
11912;BME280;6016;41.928;25.556;2022-12-05T08:01:06;100315.41;;;10.97;75.24
11912;BME280;6016;41.928;25.556;2022-12-05T08:03:34;100311.81;;;10.98;75.56
11912;BME280;6016;41.928;25.556;2022-12-05T08:06:02;100327.28;;;10.79;76.06
11912;BME280;6016;41.928;25.556;2022-12-05T08:08:36;100245.16;;;10.59;74.86
11912;BME280;6016;41.928;25.556;2022-12-05T08:11:05;99988.63;;;9.09;75.42
11912;BME280;6016;41.928;25.556;2022-12-05T08:13:33;100222.69;;;10.40;75.77
11912;BME280;6016;41.928;25.556;2022-12-05T08:16:01;100326.25;;;11.06;75.53
11912;BME280;6016;41.928;25.556;2022-12-05T08:18:28;100278.31;;;10.88;75.72
11912;BME280;6016;41.928;25.556;2022-12-05T08:20:59;100301.59;;;10.94;76.04
11912;BME280;6016;41.928;25.556;2022-12-05T08:23:27;100347.59;;;11.03;75.78
11912;BME280;6016;41.928;25.556;2022-12-05T08:25:55;100300.00;;;10.91;76.47
11912;BME280;6016;41.928;25.556;2022-12-05T08:28:26;100223.66;;;10.39;76.31
11912;BME280;6016;41.928;25.556;2022-12-05T08:30:53;100243.88;;;10.65;77.58
11912;BME280;6016;41.928;25.556;2022-12-05T08:33:19;100258.47;;;10.82;77.65
11912;BME280;6016;41.928;25.556;2022-12-05T08:35:46;100207.63;;;10.43;73.54
11912;BME280;6016;41.928;25.556;2022-12-05T08:38:13;100212.91;;;10.43;75.74
11912;BME280;6016;41.928;25.556;2022-12-05T08:40:40;100171.03;;;10.38;75.94
11912;BME280;6016;41.928;25.556;2022-12-05T08:43:08;100288.00;;;11.11;75.53
11912;BME280;6016;41.928;25.556;2022-12-05T08:45:35;99947.53;;;8.82;76.19
11912;BME280;6016;41.928;25.556;2022-12-05T08:48:02;100283.13;;;10.94;75.73
11912;BME280;6016;41.928;25.556;2022-12-05T08:50:29;100178.97;;;10.25;73.92
11912;BME280;6016;41.928;25.556;2022-12-05T08:52:55;100289.75;;;11.00;75.59
11912;BME280;6016;41.928;25.556;2022-12-05T08:55:24;100212.94;;;10.30;75.74
11912;BME280;6016;41.928;25.556;2022-12-05T08:57:51;100291.16;;;11.17;77.71
11912;BME280;6016;41.928;25.556;2022-12-05T09:00:20;100218.88;;;10.82;77.65
11912;BME280;6016;41.928;25.556;2022-12-05T09:02:49;100281.16;;;11.45;77.48
11912;BME280;6016;41.928;25.556;2022-12-05T09:05:16;100281.28;;;11.54;75.92
11912;BME280;6016;41.928;25.556;2022-12-05T09:07:43;100274.91;;;11.46;74.84
11912;BME280;6016;41.928;25.556;2022-12-05T09:10:10;100086.34;;;10.54;74.56
11912;BME280;6016;41.928;25.556;2022-12-05T09:12:37;100274.03;;;11.81;73.68
11912;BME280;6016;41.928;25.556;2022-12-05T09:15:06;100268.84;;;11.91;74.34
11912;BME280;6016;41.928;25.556;2022-12-05T09:17:34;100260.81;;;11.92;72.86
11912;BME280;6016;41.928;25.556;2022-12-05T09:20:02;100240.47;;;11.81;72.78
11912;BME280;6016;41.928;25.556;2022-12-05T09:22:29;100255.41;;;11.82;73.49
11912;BME280;6016;41.928;25.556;2022-12-05T09:24:56;100245.16;;;11.55;73.03
11912;BME280;6016;41.928;25.556;2022-12-05T09:27:22;100110.16;;;10.77;74.29
11912;BME280;6016;41.928;25.556;2022-12-05T09:29:49;100134.53;;;10.80;73.25
11912;BME280;6016;41.928;25.556;2022-12-05T09:32:16;100231.13;;;11.19;73.49
11912;BME280;6016;41.928;25.556;2022-12-05T09:34:44;100247.13;;;11.29;76.06
11912;BME280;6016;41.928;25.556;2022-12-05T09:37:11;100193.41;;;11.05;75.94
11912;BME280;6016;41.928;25.556;2022-12-05T09:39:38;100235.59;;;11.30;74.99
11912;BME280;6016;41.928;25.556;2022-12-05T09:42:17;100237.41;;;11.29;75.04
11912;BME280;6016;41.928;25.556;2022-12-05T09:45:12;100235.63;;;11.41;73.41
11912;BME280;6016;41.928;25.556;2022-12-05T09:47:47;100193.31;;;11.07;74.94
11912;BME280;6016;41.928;25.556;2022-12-05T09:50:20;100187.06;;;11.08;75.97
11912;BME280;6016;41.928;25.556;2022-12-05T09:53:03;99921.13;;;9.21;74.57
11912;BME280;6016;41.928;25.556;2022-12-05T09:55:37;99732.84;;;8.18;73.89
11912;BME280;6016;41.928;25.556;2022-12-05T09:58:21;100221.19;;;11.22;74.31
11912;BME280;6016;41.928;25.556;2022-12-05T10:00:54;100220.22;;;11.23;74.13
11912;BME280;6016;41.928;25.556;2022-12-05T10:03:28;99994.72;;;9.84;74.50
11912;BME280;6016;41.928;25.556;2022-12-05T10:06:08;100216.28;;;11.29;75.24
11912;BME280;6016;41.928;25.556;2022-12-05T10:08:46;100155.06;;;10.88;73.45
11912;BME280;6016;41.928;25.556;2022-12-05T10:11:25;100094.88;;;10.58;71.95
11912;BME280;6016;41.928;25.556;2022-12-05T10:14:00;100211.59;;;11.21;73.60
11912;BME280;6016;41.928;25.556;2022-12-05T10:16:31;100215.53;;;11.16;75.13
11912;BME280;6016;41.928;25.556;2022-12-05T10:19:02;100209.03;;;11.20;75.58
11912;BME280;6016;41.928;25.556;2022-12-05T10:21:36;100188.94;;;10.94;75.10
11912;BME280;6016;41.928;25.556;2022-12-05T10:24:10;100209.25;;;11.05;74.83
11912;BME280;6016;41.928;25.556;2022-12-05T10:26:42;100172.09;;;10.84;73.55
11912;BME280;6016;41.928;25.556;2022-12-05T10:29:18;100162.22;;;10.75;73.23
11912;BME280;6016;41.928;25.556;2022-12-05T10:31:54;100086.09;;;10.46;73.85
11912;BME280;6016;41.928;25.556;2022-12-05T10:34:29;100181.31;;;11.14;73.32
11912;BME280;6016;41.928;25.556;2022-12-05T10:37:08;100198.50;;;11.31;73.63
11912;BME280;6016;41.928;25.556;2022-12-05T10:39:36;100198.03;;;11.26;72.22
11912;BME280;6016;41.928;25.556;2022-12-05T10:42:04;100141.91;;;11.00;73.17
11912;BME280;6016;41.928;25.556;2022-12-05T10:44:32;100185.22;;;11.44;73.74
11912;BME280;6016;41.928;25.556;2022-12-05T10:47:03;100104.34;;;10.96;72.57
11912;BME280;6016;41.928;25.556;2022-12-05T10:49:31;100111.81;;;11.02;71.22
11912;BME280;6016;41.928;25.556;2022-12-05T10:52:01;100186.63;;;11.37;72.39
11912;BME280;6016;41.928;25.556;2022-12-05T10:54:31;100181.63;;;11.45;72.74
11912;BME280;6016;41.928;25.556;2022-12-05T10:57:19;100175.09;;;11.38;72.11
11912;BME280;6016;41.928;25.556;2022-12-05T10:59:46;100178.72;;;11.37;71.75
11912;BME280;6016;41.928;25.556;2022-12-05T11:02:20;100144.97;;;11.29;71.29
11912;BME280;6016;41.928;25.556;2022-12-05T11:04:48;100171.88;;;11.57;72.77
11912;BME280;6016;41.928;25.556;2022-12-05T11:07:25;99757.91;;;9.10;72.27
11912;BME280;6016;41.928;25.556;2022-12-05T11:09:53;100168.63;;;11.65;71.87
11912;BME280;6016;41.928;25.556;2022-12-05T11:12:23;100078.66;;;11.09;71.87
11912;BME280;6016;41.928;25.556;2022-12-05T11:15:00;100154.09;;;11.48;72.09
11912;BME280;6016;41.928;25.556;2022-12-05T11:17:31;100218.59;;;11.45;72.60
11912;BME280;6016;41.928;25.556;2022-12-05T11:19:58;100068.69;;;10.90;73.92
11912;BME280;6016;41.928;25.556;2022-12-05T11:22:34;100158.06;;;11.65;73.15
11912;BME280;6016;41.928;25.556;2022-12-05T11:25:24;100122.03;;;11.41;73.20
11912;BME280;6016;41.928;25.556;2022-12-05T11:27:51;100164.06;;;11.56;73.82
11912;BME280;6016;41.928;25.556;2022-12-05T11:30:22;100088.88;;;11.25;73.28
11912;BME280;6016;41.928;25.556;2022-12-05T11:32:49;100139.69;;;11.29;73.08
11912;BME280;6016;41.928;25.556;2022-12-05T11:35:23;100118.66;;;11.28;73.51
11912;BME280;6016;41.928;25.556;2022-12-05T11:37:55;100144.13;;;11.63;73.42
11912;BME280;6016;41.928;25.556;2022-12-05T11:40:29;100143.66;;;11.46;72.79
11912;BME280;6016;41.928;25.556;2022-12-05T11:43:26;99866.72;;;9.93;71.83
11912;BME280;6016;41.928;25.556;2022-12-05T11:46:03;100134.66;;;11.26;74.50
11912;BME280;6016;41.928;25.556;2022-12-05T11:48:50;100028.13;;;10.91;73.00
11912;BME280;6016;41.928;25.556;2022-12-05T11:51:31;100046.88;;;11.11;73.30
11912;BME280;6016;41.928;25.556;2022-12-05T11:54:27;100056.47;;;11.23;72.64
11912;BME280;6016;41.928;25.556;2022-12-05T11:57:02;100119.88;;;11.58;72.06
11912;BME280;6016;41.928;25.556;2022-12-05T11:59:59;100108.97;;;11.39;73.00
11912;BME280;6016;41.928;25.556;2022-12-05T12:02:40;100083.13;;;11.20;71.48
11912;BME280;6016;41.928;25.556;2022-12-05T12:05:17;100020.94;;;10.82;71.78
11912;BME280;6016;41.928;25.556;2022-12-05T12:07:57;100012.84;;;10.61;71.41
11912;BME280;6016;41.928;25.556;2022-12-05T12:10:32;100117.84;;;11.27;71.54
11912;BME280;6016;41.928;25.556;2022-12-05T12:13:13;99419.72;;;6.78;73.63
11912;BME280;6016;41.928;25.556;2022-12-05T12:15:56;100063.88;;;10.73;73.13
11912;BME280;6016;41.928;25.556;2022-12-05T12:18:43;100008.94;;;10.31;74.37
11912;BME280;6016;41.928;25.556;2022-12-05T12:21:16;99981.56;;;10.20;72.99
11912;BME280;6016;41.928;25.556;2022-12-05T12:23:58;100055.44;;;10.67;73.80
11912;BME280;6016;41.928;25.556;2022-12-05T12:26:38;100007.78;;;10.46;73.61
11912;BME280;6016;41.928;25.556;2022-12-05T12:29:19;100109.66;;;11.30;74.54
11912;BME280;6016;41.928;25.556;2022-12-05T12:32:01;100117.25;;;11.35;72.57
11912;BME280;6016;41.928;25.556;2022-12-05T12:34:43;100117.84;;;11.38;71.98
11912;BME280;6016;41.928;25.556;2022-12-05T12:37:21;100104.84;;;11.35;71.90
11912;BME280;6016;41.928;25.556;2022-12-05T12:39:57;100070.75;;;11.09;73.03
11912;BME280;6016;41.928;25.556;2022-12-05T12:42:34;100099.09;;;11.19;72.81
11912;BME280;6016;41.928;25.556;2022-12-05T12:45:25;100097.78;;;11.36;71.64
11912;BME280;6016;41.928;25.556;2022-12-05T12:48:12;100072.56;;;11.20;71.95
11912;BME280;6016;41.928;25.556;2022-12-05T12:50:44;100091.44;;;11.27;71.63
11912;BME280;6016;41.928;25.556;2022-12-05T12:56:35;100104.34;;;11.07;72.96
11912;BME280;6016;41.928;25.556;2022-12-05T12:59:26;100031.31;;;10.61;72.36
11912;BME280;6016;41.928;25.556;2022-12-05T13:01:59;100026.41;;;10.45;74.04
11912;BME280;6016;41.928;25.556;2022-12-05T13:04:31;100082.59;;;10.92;74.17
11912;BME280;6016;41.928;25.556;2022-12-05T13:07:08;100047.78;;;10.76;73.77
11912;BME280;6016;41.928;25.556;2022-12-05T13:09:39;100098.13;;;11.08;73.35
11912;BME280;6016;41.928;25.556;2022-12-05T13:12:11;100051.50;;;10.73;75.26
11912;BME280;6016;41.928;25.556;2022-12-05T13:14:43;100092.00;;;11.08;75.28
11912;BME280;6016;41.928;25.556;2022-12-05T13:17:18;100090.56;;;11.15;75.23
11912;BME280;6016;41.928;25.556;2022-12-05T13:19:48;100063.31;;;10.92;75.95
11912;BME280;6016;41.928;25.556;2022-12-05T13:22:16;99933.59;;;10.04;76.16
11912;BME280;6016;41.928;25.556;2022-12-05T13:24:43;100050.34;;;10.89;74.97